createdAt,value
2022-07-27T00:01:57.811Z,0.70
2022-07-27T00:04:59.551Z,0.90
2022-07-27T00:08:01.257Z,1.00
2022-07-27T00:11:03.915Z,0.43
2022-07-27T00:14:05.841Z,0.50
2022-07-27T00:17:07.574Z,0.80
2022-07-27T00:20:09.936Z,0.80
2022-07-27T00:23:11.657Z,0.80
2022-07-27T00:26:13.436Z,0.77
2022-07-27T00:29:15.530Z,0.60
2022-07-27T00:32:17.381Z,0.70
2022-07-27T00:35:19.265Z,0.60
2022-07-27T00:38:20.938Z,0.80
2022-07-27T00:41:22.695Z,0.70
2022-07-27T00:44:29.545Z,1.30
2022-07-27T00:47:31.321Z,0.80
2022-07-27T00:50:33.334Z,0.57
2022-07-27T00:53:35.316Z,0.60
2022-07-27T00:56:37.293Z,0.67
2022-07-27T00:59:39.914Z,0.70
2022-07-27T01:02:46.293Z,1.30
2022-07-27T01:05:49.514Z,1.20
2022-07-27T01:08:51.422Z,0.70
2022-07-27T01:11:53.125Z,1.10
2022-07-27T01:14:56.810Z,0.80
2022-07-27T01:17:58.510Z,1.60
2022-07-27T01:21:02.270Z,0.83
2022-07-27T01:24:05.080Z,0.70
2022-07-27T01:27:22.349Z,1.10
2022-07-27T01:30:26.789Z,1.13
2022-07-27T01:33:28.472Z,1.13
2022-07-27T01:36:30.278Z,1.00
2022-07-27T01:39:33.208Z,1.03
2022-07-27T01:42:35.391Z,1.20
2022-07-27T01:45:38.734Z,0.77
2022-07-27T01:48:40.620Z,1.13
2022-07-27T01:51:42.509Z,1.00
2022-07-27T01:54:44.200Z,0.87
2022-07-27T01:57:45.954Z,0.90
2022-07-27T02:00:49.307Z,0.87
2022-07-27T02:03:51.117Z,1.40
2022-07-27T02:06:52.847Z,1.20
2022-07-27T02:09:54.618Z,1.00
2022-07-27T02:12:56.360Z,1.10
2022-07-27T02:15:58.522Z,1.40
2022-07-27T02:19:00.332Z,1.30
2022-07-27T02:22:06.585Z,0.90
2022-07-27T02:25:09.908Z,1.27
2022-07-27T02:28:11.697Z,1.57
2022-07-27T02:31:13.396Z,1.10
2022-07-27T02:34:15.098Z,1.27
2022-07-27T02:37:16.937Z,1.40
2022-07-27T02:40:20.192Z,1.37
2022-07-27T02:43:21.964Z,1.93
2022-07-27T02:46:24.783Z,1.50
2022-07-27T02:49:26.545Z,1.40
2022-07-27T02:52:28.529Z,1.33
2022-07-27T02:55:30.360Z,1.40
2022-07-27T02:58:32.085Z,1.00
2022-07-27T03:01:33.831Z,1.33
2022-07-27T03:04:35.674Z,1.67
2022-07-27T03:07:37.569Z,1.60
2022-07-27T03:10:39.264Z,1.30
2022-07-27T03:13:42.057Z,1.17
2022-07-27T03:16:43.829Z,1.37
2022-07-27T03:19:45.525Z,1.13
2022-07-27T03:22:47.239Z,1.50
2022-07-27T03:25:48.967Z,1.40
2022-07-27T03:28:50.688Z,1.33
2022-07-27T03:31:52.451Z,1.53
2022-07-27T03:34:54.181Z,1.17
2022-07-27T03:37:56.267Z,1.67
2022-07-27T03:40:57.969Z,1.40
2022-07-27T03:43:59.677Z,1.23
2022-07-27T03:47:01.468Z,1.30
2022-07-27T03:50:04.231Z,1.53
2022-07-27T03:53:05.991Z,1.60
2022-07-27T03:56:07.725Z,1.50
2022-07-27T03:59:10.107Z,1.60
2022-07-27T04:02:12.028Z,1.13
2022-07-27T04:05:14.055Z,1.43
2022-07-27T04:08:17.525Z,1.40
2022-07-27T04:11:19.240Z,1.23
2022-07-27T04:14:21.070Z,1.03
2022-07-27T04:17:54.830Z,1.43
2022-07-27T04:20:44.499Z,1.40
2022-07-27T04:23:46.246Z,1.33
2022-07-27T04:26:48.107Z,1.33
2022-07-27T04:29:49.876Z,1.00
2022-07-27T04:32:52.206Z,1.17
2022-07-27T04:35:56.406Z,1.60
2022-07-27T04:39:01.092Z,1.20
2022-07-27T04:42:03.305Z,1.60
2022-07-27T04:45:06.183Z,0.97
2022-07-27T04:48:09.226Z,1.07
2022-07-27T04:51:14.691Z,1.00
2022-07-27T04:54:16.913Z,0.90
2022-07-27T04:57:19.842Z,1.57
2022-07-27T05:00:22.117Z,1.50
2022-07-27T05:03:23.829Z,1.50
2022-07-27T05:06:25.672Z,1.40
2022-07-27T05:09:30.587Z,1.50
2022-07-27T05:12:32.518Z,1.80
2022-07-27T05:15:56.120Z,1.60
2022-07-27T05:18:58.173Z,2.00
2022-07-27T05:22:00.894Z,1.83
2022-07-27T05:25:02.881Z,1.80
2022-07-27T05:28:05.681Z,2.10
2022-07-27T05:31:07.543Z,2.17
2022-07-27T05:34:09.326Z,2.10
2022-07-27T05:37:11.396Z,2.00
2022-07-27T05:40:13.723Z,1.60
2022-07-27T05:43:15.645Z,2.40
2022-07-27T05:46:17.792Z,2.20
2022-07-27T05:49:20.094Z,1.43
2022-07-27T05:52:21.987Z,2.30
2022-07-27T05:55:23.730Z,2.20
2022-07-27T05:58:25.486Z,1.67
2022-07-27T06:01:28.139Z,1.70
2022-07-27T06:04:30.075Z,2.10
2022-07-27T06:07:50.762Z,1.73
2022-07-27T06:10:52.526Z,1.90
2022-07-27T06:13:55.936Z,1.70
2022-07-27T06:17:00.054Z,1.80
2022-07-27T06:20:07.268Z,1.50
2022-07-27T06:23:11.215Z,1.90
2022-07-27T06:26:13.326Z,2.13
2022-07-27T06:29:17.833Z,1.40
2022-07-27T06:32:19.725Z,1.20
2022-07-27T06:35:24.275Z,1.00
2022-07-27T06:38:27.414Z,1.23
2022-07-27T06:41:29.152Z,0.80
2022-07-27T06:44:41.263Z,1.50
2022-07-27T06:47:49.214Z,1.50
2022-07-27T06:50:52.565Z,1.23
2022-07-27T06:54:03.639Z,1.10
2022-07-27T06:57:05.999Z,1.10
2022-07-27T07:00:09.756Z,0.80
2022-07-27T07:03:11.611Z,0.87
2022-07-27T07:06:13.394Z,0.80
2022-07-27T07:12:55.696Z,0.80
2022-07-27T07:15:57.960Z,0.60
2022-07-27T07:19:00.087Z,0.73
2022-07-27T07:22:05.447Z,0.63
2022-07-27T07:25:11.863Z,0.73
2022-07-27T07:28:14.032Z,1.27
2022-07-27T07:31:16.817Z,0.73
2022-07-27T07:34:18.686Z,0.50
2022-07-27T07:37:20.900Z,0.50
2022-07-27T07:40:43.242Z,0.70
2022-07-27T07:43:46.487Z,0.60
2022-07-27T07:47:09.002Z,0.43
2022-07-27T07:50:28.141Z,0.60
2022-07-27T07:53:29.959Z,0.67
2022-07-27T07:56:31.830Z,0.60
2022-07-27T07:59:33.749Z,0.60
2022-07-27T08:03:02.038Z,0.60
2022-07-27T08:06:04.480Z,0.70
2022-07-27T08:09:07.056Z,0.60
2022-07-27T08:12:08.863Z,0.50
2022-07-27T08:15:12.431Z,0.50
2022-07-27T08:18:16.985Z,0.70
2022-07-27T08:21:24.718Z,1.63
2022-07-27T08:24:26.700Z,0.60
2022-07-27T08:27:29.006Z,0.60
2022-07-27T08:30:32.267Z,0.53
2022-07-27T08:33:35.647Z,0.70
2022-07-27T08:36:58.725Z,0.40
2022-07-27T08:40:38.777Z,0.60
2022-07-27T08:43:27.660Z,0.40
2022-07-27T08:46:32.838Z,0.60
2022-07-27T08:49:43.036Z,0.50
2022-07-27T08:53:06.543Z,0.90
2022-07-27T08:56:12.975Z,0.40
2022-07-27T08:59:15.617Z,0.60
2022-07-27T09:02:17.947Z,0.80
2022-07-27T09:05:25.066Z,0.77
2022-07-27T09:08:33.877Z,0.40
2022-07-27T09:11:38.683Z,0.50
2022-07-27T09:15:08.347Z,0.50
2022-07-27T09:18:23.250Z,0.87
2022-07-27T09:21:25.743Z,0.60
2022-07-27T09:24:46.050Z,0.60
2022-07-27T09:27:55.754Z,0.57
2022-07-27T09:31:09.251Z,0.50
2022-07-27T09:34:13.060Z,0.67
2022-07-27T09:37:43.899Z,0.50
2022-07-27T09:40:47.271Z,0.50
2022-07-27T09:47:21.153Z,0.47
2022-07-27T09:50:24.126Z,0.45
2022-07-27T09:53:42.402Z,0.70
2022-07-27T09:57:03.689Z,0.60
2022-07-27T10:00:14.301Z,0.40
2022-07-27T10:07:02.734Z,0.50
2022-07-27T10:10:07.003Z,0.55
2022-07-27T10:13:08.757Z,0.50
2022-07-27T10:16:23.140Z,0.73
2022-07-27T10:19:43.671Z,0.98
2022-07-27T10:22:58.568Z,0.68
2022-07-27T10:26:25.552Z,0.47
2022-07-27T10:29:27.584Z,0.52
2022-07-27T10:32:44.556Z,0.70
2022-07-27T10:35:49.933Z,0.50
2022-07-27T10:38:57.253Z,0.50
2022-07-27T10:42:21.534Z,0.40
2022-07-27T10:45:23.632Z,0.55
2022-07-27T10:48:45.876Z,0.80
2022-07-27T10:51:59.471Z,1.08
2022-07-27T10:55:06.109Z,0.80
2022-07-27T10:58:14.392Z,0.50
2022-07-27T11:01:26.743Z,0.73
2022-07-27T11:04:28.875Z,0.80
2022-07-27T11:07:43.853Z,0.40
2022-07-27T11:10:53.193Z,0.40
2022-07-27T11:14:02.031Z,0.40
2022-07-27T11:17:48.598Z,0.43
2022-07-27T11:20:34.925Z,0.50
2022-07-27T11:23:52.213Z,0.50
2022-07-27T11:26:57.082Z,0.40
2022-07-27T11:30:05.918Z,0.30
2022-07-27T11:33:08.235Z,0.40
2022-07-27T11:36:23.856Z,0.60
2022-07-27T11:42:51.190Z,0.40
2022-07-27T11:45:53.701Z,0.40
2022-07-27T11:49:08.709Z,0.60
2022-07-27T11:52:12.042Z,0.47
2022-07-27T11:55:16.934Z,0.50
2022-07-27T11:58:18.967Z,0.50
2022-07-27T12:01:39.191Z,0.47
2022-07-27T12:04:43.842Z,0.60
2022-07-27T12:07:48.265Z,0.40
2022-07-27T12:11:07.744Z,0.40
2022-07-27T12:14:15.653Z,0.50
2022-07-27T12:17:20.942Z,0.85
2022-07-27T12:20:39.454Z,0.38
2022-07-27T12:23:51.357Z,0.57
2022-07-27T12:27:15.995Z,0.30
2022-07-27T12:30:18.062Z,0.43
2022-07-27T12:33:36.978Z,0.80
2022-07-27T12:36:44.162Z,0.38
2022-07-27T12:39:49.003Z,0.43
2022-07-27T12:43:02.575Z,0.50
2022-07-27T12:46:16.036Z,0.40
2022-07-27T12:49:18.791Z,0.40
2022-07-27T12:52:21.175Z,0.50
2022-07-27T12:55:23.672Z,0.40
2022-07-27T12:58:33.236Z,0.50
2022-07-27T13:01:35.524Z,0.68
2022-07-27T13:04:37.400Z,0.50
2022-07-27T13:07:46.036Z,0.47
2022-07-27T13:10:52.068Z,0.50
2022-07-27T13:13:53.828Z,0.40
2022-07-27T13:16:58.978Z,0.73
2022-07-27T13:20:00.921Z,0.43
2022-07-27T13:23:02.933Z,0.52
2022-07-27T13:26:04.779Z,0.90
2022-07-27T13:29:06.779Z,0.50
2022-07-27T13:32:14.303Z,0.50
2022-07-27T13:38:36.661Z,0.40
2022-07-27T13:41:40.859Z,0.98
2022-07-27T13:45:11.880Z,0.50
2022-07-27T13:48:30.156Z,0.63
2022-07-27T13:51:50.967Z,0.63
2022-07-27T13:55:02.396Z,0.47
2022-07-27T13:58:16.755Z,0.57
2022-07-27T14:01:26.245Z,0.50
2022-07-27T14:04:28.481Z,0.52
2022-07-27T14:07:30.779Z,0.50
2022-07-27T14:10:52.881Z,0.50
2022-07-27T14:13:55.388Z,0.60
2022-07-27T14:17:00.271Z,0.60
2022-07-27T14:20:02.213Z,0.70
2022-07-27T14:23:04.330Z,0.50
2022-07-27T14:26:08.263Z,0.60
2022-07-27T14:29:10.342Z,0.52
2022-07-27T14:32:25.225Z,0.50
2022-07-27T14:36:12.797Z,0.60
2022-07-27T14:43:48.151Z,0.40
2022-07-27T14:47:01.019Z,0.45
2022-07-27T14:50:05.491Z,0.50
2022-07-27T14:53:16.621Z,0.50
2022-07-27T14:56:18.886Z,0.70
2022-07-27T14:59:33.378Z,0.55
2022-07-27T15:02:35.819Z,0.40
2022-07-27T15:05:50.447Z,0.40
2022-07-27T15:08:55.632Z,0.30
2022-07-27T15:11:59.441Z,0.40
2022-07-27T15:15:01.717Z,0.40
2022-07-27T15:21:47.721Z,0.50
2022-07-27T15:24:49.579Z,0.60
2022-07-27T15:27:51.336Z,0.63
2022-07-27T15:30:53.984Z,0.50
2022-07-27T15:33:55.821Z,0.30
2022-07-27T15:37:00.481Z,0.30
2022-07-27T15:40:29.709Z,0.50
2022-07-27T15:43:32.370Z,0.30
2022-07-27T15:46:34.471Z,0.40
2022-07-27T15:49:36.365Z,0.47
2022-07-27T15:52:56.719Z,0.20
2022-07-27T15:56:04.662Z,0.40
2022-07-27T15:59:15.878Z,0.40
2022-07-27T16:03:01.127Z,0.20
2022-07-27T16:06:03.618Z,0.32
2022-07-27T16:09:21.498Z,0.28
2022-07-27T16:12:36.292Z,0.40
2022-07-27T16:16:33.776Z,0.30
2022-07-27T16:19:44.419Z,0.40
2022-07-27T16:22:56.766Z,0.50
2022-07-27T16:26:04.866Z,0.30
2022-07-27T16:29:10.743Z,0.40
2022-07-27T16:32:15.618Z,0.52
2022-07-27T16:35:20.006Z,0.43
2022-07-27T16:38:21.987Z,0.50
2022-07-27T16:41:30.184Z,0.40
2022-07-27T16:44:32.274Z,0.50
2022-07-27T16:47:34.278Z,0.52
2022-07-27T16:50:36.235Z,0.25
2022-07-27T16:53:39.874Z,0.50
2022-07-27T16:56:41.691Z,0.45
2022-07-27T16:59:43.425Z,0.60
2022-07-27T17:02:51.613Z,0.70
2022-07-27T17:06:03.668Z,0.40
2022-07-27T17:09:10.863Z,0.47
2022-07-27T17:12:21.793Z,0.40
2022-07-27T17:15:30.559Z,0.50
2022-07-27T17:18:42.096Z,0.30
2022-07-27T17:21:57.738Z,0.68
2022-07-27T17:25:25.081Z,0.40
2022-07-27T17:28:28.374Z,0.38
2022-07-27T17:31:31.714Z,0.60
2022-07-27T17:34:36.699Z,0.73
2022-07-27T17:38:04.411Z,0.60
2022-07-27T17:41:09.457Z,0.45
2022-07-27T17:44:12.275Z,0.50
2022-07-27T17:47:36.251Z,0.40
2022-07-27T17:50:49.861Z,0.68
2022-07-27T17:53:52.086Z,0.82
2022-07-27T17:56:57.063Z,0.82
2022-07-27T18:00:07.377Z,0.60
2022-07-27T18:03:33.041Z,0.75
2022-07-27T18:06:35.350Z,0.65
2022-07-27T18:09:42.817Z,0.60
2022-07-27T18:12:58.693Z,0.90
2022-07-27T18:16:40.624Z,0.65
2022-07-27T18:19:52.004Z,0.50
2022-07-27T18:22:53.874Z,0.77
2022-07-27T18:25:55.632Z,0.50
2022-07-27T18:28:57.643Z,0.65
2022-07-27T18:31:59.386Z,0.40
2022-07-27T18:35:05.310Z,0.40
2022-07-27T18:38:10.180Z,0.63
2022-07-27T18:41:13.470Z,0.43
2022-07-27T18:44:15.156Z,0.50
2022-07-27T18:47:16.832Z,0.60
2022-07-27T18:50:18.679Z,0.60
2022-07-27T18:53:20.607Z,0.70
2022-07-27T18:56:22.349Z,0.43
2022-07-27T18:59:24.197Z,0.52
2022-07-27T19:02:25.970Z,0.52
2022-07-27T19:05:40.695Z,0.30
2022-07-27T19:08:44.305Z,0.40
2022-07-27T19:11:46.115Z,0.30
2022-07-27T19:14:50.272Z,0.50
2022-07-27T19:17:52.858Z,0.47
2022-07-27T19:20:55.445Z,0.50
2022-07-27T19:23:57.200Z,0.43
2022-07-27T19:26:59.004Z,0.40
2022-07-27T19:30:00.712Z,0.50
2022-07-27T19:33:02.610Z,0.50
2022-07-27T19:36:04.649Z,0.80
2022-07-27T19:39:08.166Z,0.60
2022-07-27T19:42:09.995Z,0.45
2022-07-27T19:45:11.712Z,0.50
2022-07-27T19:48:13.469Z,0.60
2022-07-27T19:51:15.209Z,0.50
2022-07-27T19:54:17.288Z,0.65
2022-07-27T19:57:18.986Z,0.40
2022-07-27T20:00:20.765Z,0.52
2022-07-27T20:03:22.748Z,0.63
2022-07-27T20:06:25.089Z,0.60
2022-07-27T20:09:28.748Z,0.23
2022-07-27T20:12:30.445Z,0.80
2022-07-27T20:15:32.337Z,0.50
2022-07-27T20:18:35.535Z,0.60
2022-07-27T20:21:39.105Z,0.60
2022-07-27T20:24:40.829Z,0.60
2022-07-27T20:27:42.885Z,0.60
2022-07-27T20:30:44.654Z,0.40
2022-07-27T20:33:46.592Z,0.50
2022-07-27T20:36:48.609Z,0.50
2022-07-27T20:39:51.690Z,0.70
2022-07-27T20:42:53.410Z,0.40
2022-07-27T20:45:55.441Z,0.77
2022-07-27T20:48:57.274Z,0.50
2022-07-27T20:51:59.010Z,0.60
2022-07-27T20:55:00.896Z,0.80
2022-07-27T20:58:02.647Z,0.50
2022-07-27T21:01:04.867Z,0.50
2022-07-27T21:04:06.673Z,0.53
2022-07-27T21:07:08.393Z,0.53
2022-07-27T21:10:10.338Z,0.47
2022-07-27T21:13:12.052Z,0.40
2022-07-27T21:16:13.977Z,0.50
2022-07-27T21:19:16.483Z,0.50
2022-07-27T21:22:18.491Z,1.07
2022-07-27T21:25:20.199Z,0.30
2022-07-27T21:28:24.892Z,0.60
2022-07-27T21:31:26.768Z,0.40
2022-07-27T21:34:28.633Z,0.50
2022-07-27T21:37:30.338Z,0.50
2022-07-27T21:40:32.398Z,0.40
2022-07-27T21:43:34.391Z,0.60
2022-07-27T21:46:36.192Z,0.40
2022-07-27T21:49:38.164Z,0.50
2022-07-27T21:52:39.886Z,0.40
2022-07-27T21:55:41.601Z,0.67
2022-07-27T21:58:48.709Z,0.60
2022-07-27T22:01:50.443Z,0.43
2022-07-27T22:04:52.140Z,0.50
2022-07-27T22:07:53.867Z,0.77
2022-07-27T22:10:55.648Z,0.67
2022-07-27T22:13:57.322Z,0.70
2022-07-27T22:17:00.045Z,0.50
2022-07-27T22:20:02.100Z,0.50
2022-07-27T22:23:03.961Z,0.50
2022-07-27T22:26:05.686Z,0.53
2022-07-27T22:29:07.391Z,0.93
2022-07-27T22:32:10.355Z,0.67
2022-07-27T22:35:12.165Z,0.60
2022-07-27T22:38:13.907Z,0.60
2022-07-27T22:41:15.684Z,0.80
2022-07-27T22:44:17.575Z,0.30
2022-07-27T22:47:22.302Z,0.40
2022-07-27T22:50:24.189Z,0.53
2022-07-27T22:53:25.961Z,0.67
2022-07-27T22:56:27.688Z,0.60
2022-07-27T22:59:29.404Z,0.70
2022-07-27T23:02:31.174Z,0.50
2022-07-27T23:05:33.033Z,0.60
2022-07-27T23:08:34.770Z,0.50
2022-07-27T23:11:36.549Z,0.50
2022-07-27T23:14:38.251Z,0.70
2022-07-27T23:17:40.078Z,0.47
2022-07-27T23:20:42.231Z,0.60
2022-07-27T23:23:53.598Z,0.50
2022-07-27T23:26:55.869Z,0.47
2022-07-27T23:29:57.569Z,0.50
2022-07-27T23:32:59.454Z,0.57
2022-07-27T23:36:06.156Z,0.80
2022-07-27T23:39:07.848Z,0.70
2022-07-27T23:42:09.546Z,0.60
2022-07-27T23:45:11.712Z,0.87
2022-07-27T23:48:13.480Z,0.80
2022-07-27T23:51:21.793Z,0.60
2022-07-27T23:54:23.537Z,0.80
2022-07-27T23:57:25.335Z,0.70
